createdAt,value
2022-10-19T00:01:33.397Z,97.68
2022-10-19T00:04:02.492Z,98.06
2022-10-19T00:06:34.011Z,97.65
2022-10-19T00:09:05.165Z,98.16
2022-10-19T00:11:33.134Z,97.68
2022-10-19T00:14:00.718Z,97.64
2022-10-19T00:16:30.412Z,97.74
2022-10-19T00:18:58.026Z,98.17
2022-10-19T00:21:24.933Z,98.72
2022-10-19T00:23:51.350Z,98.61
2022-10-19T00:26:18.165Z,98.60
2022-10-19T00:28:44.867Z,98.28
2022-10-19T00:31:17.406Z,98.99
2022-10-19T00:33:46.753Z,98.79
2022-10-19T00:36:19.280Z,98.67
2022-10-19T00:38:45.672Z,98.98
2022-10-19T00:41:12.130Z,98.91
2022-10-19T00:44:13.598Z,99.65
2022-10-19T00:46:43.313Z,99.25
2022-10-19T00:49:15.640Z,99.46
2022-10-19T00:51:45.005Z,99.40
2022-10-19T00:54:12.425Z,99.49
2022-10-19T00:56:42.644Z,99.47
2022-10-19T00:59:10.424Z,99.60
2022-10-19T01:01:37.342Z,99.91
2022-10-19T01:04:04.617Z,100.00
2022-10-19T01:06:32.053Z,100.00
2022-10-19T01:08:58.534Z,100.00
2022-10-19T01:11:39.687Z,100.00
2022-10-19T01:14:24.587Z,100.00
2022-10-19T01:17:11.048Z,100.00
2022-10-19T01:20:08.268Z,100.00
2022-10-19T01:22:56.349Z,100.00
2022-10-19T01:25:35.097Z,100.00
2022-10-19T01:28:20.475Z,100.00
2022-10-19T01:30:58.597Z,100.00
2022-10-19T01:33:43.282Z,100.00
2022-10-19T01:36:28.786Z,100.00
2022-10-19T01:39:04.107Z,100.00
2022-10-19T01:41:41.397Z,100.00
2022-10-19T01:44:17.308Z,100.00
2022-10-19T01:46:56.752Z,100.00
2022-10-19T01:49:35.167Z,100.00
2022-10-19T01:52:08.442Z,100.00
2022-10-19T01:54:42.582Z,100.00
2022-10-19T01:57:12.413Z,100.00
2022-10-19T01:59:39.569Z,100.00
2022-10-19T02:02:08.845Z,100.00
2022-10-19T02:04:36.821Z,100.00
2022-10-19T02:07:06.506Z,100.00
2022-10-19T02:09:33.169Z,100.00
2022-10-19T02:12:04.889Z,100.00
2022-10-19T02:14:37.554Z,100.00
2022-10-19T02:17:13.971Z,99.99
2022-10-19T02:19:41.316Z,99.68
2022-10-19T02:22:08.691Z,99.75
2022-10-19T02:24:35.132Z,98.91
2022-10-19T02:27:04.871Z,99.34
2022-10-19T02:29:33.127Z,98.74
2022-10-19T02:32:00.131Z,98.28
2022-10-19T02:34:27.054Z,98.68
2022-10-19T02:36:54.240Z,98.16
2022-10-19T02:39:21.378Z,99.05
2022-10-19T02:42:04.160Z,98.85
2022-10-19T02:44:56.864Z,98.38
2022-10-19T02:47:28.270Z,98.18
2022-10-19T02:49:54.908Z,98.27
2022-10-19T02:52:21.435Z,98.01
2022-10-19T02:54:47.926Z,97.62
2022-10-19T02:57:15.601Z,97.89
2022-10-19T02:59:42.006Z,98.35
2022-10-19T03:02:08.550Z,97.90
2022-10-19T03:04:35.031Z,97.53
2022-10-19T03:07:01.695Z,97.77
2022-10-19T03:09:28.145Z,97.95
2022-10-19T03:11:57.323Z,98.16
2022-10-19T03:14:23.803Z,97.68
2022-10-19T03:16:50.238Z,97.83
2022-10-19T03:19:16.674Z,97.57
2022-10-19T03:21:43.095Z,97.44
2022-10-19T03:24:10.056Z,98.48
2022-10-19T03:26:36.592Z,97.64
2022-10-19T03:29:03.349Z,97.88
2022-10-19T03:31:29.879Z,97.39
2022-10-19T03:33:56.452Z,98.01
2022-10-19T03:36:24.691Z,98.27
2022-10-19T03:38:56.080Z,98.29
2022-10-19T03:41:24.349Z,97.90
2022-10-19T03:43:51.166Z,98.08
2022-10-19T03:46:17.674Z,97.89
2022-10-19T03:48:44.491Z,97.60
2022-10-19T03:51:16.759Z,97.15
2022-10-19T03:53:43.701Z,97.27
2022-10-19T03:56:15.464Z,98.11
2022-10-19T03:58:43.537Z,97.96
2022-10-19T04:01:16.498Z,97.26
2022-10-19T04:03:43.635Z,96.63
2022-10-19T04:06:15.840Z,97.82
2022-10-19T04:08:48.074Z,96.93
2022-10-19T04:11:16.422Z,97.74
2022-10-19T04:13:42.762Z,98.17
2022-10-19T04:16:13.301Z,97.64
2022-10-19T04:18:39.757Z,97.72
2022-10-19T04:21:06.817Z,97.78
2022-10-19T04:23:35.839Z,97.37
2022-10-19T04:26:04.290Z,98.01
2022-10-19T04:28:30.619Z,98.15
2022-10-19T04:30:57.176Z,97.96
2022-10-19T04:33:23.784Z,97.56
2022-10-19T04:35:50.226Z,97.37
2022-10-19T04:38:16.714Z,97.77
2022-10-19T04:40:43.218Z,97.68
2022-10-19T04:43:09.624Z,98.09
2022-10-19T04:45:36.136Z,97.16
2022-10-19T04:48:02.497Z,97.21
2022-10-19T04:50:28.988Z,97.19
2022-10-19T04:52:55.464Z,97.20
2022-10-19T04:55:21.967Z,97.01
2022-10-19T04:57:48.599Z,97.09
2022-10-19T05:00:15.588Z,97.71
2022-10-19T05:02:46.114Z,97.87
2022-10-19T05:05:14.208Z,97.19
2022-10-19T05:07:40.832Z,97.45
2022-10-19T05:10:10.967Z,97.81
2022-10-19T05:12:37.482Z,98.44
2022-10-19T05:15:04.321Z,98.89
2022-10-19T05:17:32.282Z,99.00
2022-10-19T05:19:58.943Z,99.03
2022-10-19T05:22:25.495Z,98.63
2022-10-19T05:24:55.851Z,99.31
2022-10-19T05:27:24.787Z,99.24
2022-10-19T05:29:51.283Z,99.24
2022-10-19T05:32:17.753Z,99.12
2022-10-19T05:34:44.285Z,99.19
2022-10-19T05:37:10.752Z,98.69
2022-10-19T05:39:37.229Z,99.13
2022-10-19T05:42:03.620Z,99.72
2022-10-19T05:44:30.252Z,100.00
2022-10-19T05:46:56.753Z,99.13
2022-10-19T05:49:23.303Z,99.46
2022-10-19T05:51:50.244Z,98.94
2022-10-19T05:54:16.712Z,98.72
2022-10-19T05:56:43.920Z,98.61
2022-10-19T05:59:15.382Z,98.42
2022-10-19T06:01:41.850Z,98.24
2022-10-19T06:04:08.434Z,98.48
2022-10-19T06:06:34.893Z,98.93
2022-10-19T06:09:01.527Z,99.15
2022-10-19T06:11:35.117Z,98.71
2022-10-19T06:14:04.041Z,97.94
2022-10-19T06:16:31.711Z,98.32
2022-10-19T06:18:59.099Z,98.48
2022-10-19T06:21:28.536Z,98.66
2022-10-19T06:24:01.512Z,98.16
2022-10-19T06:26:30.325Z,98.96
2022-10-19T06:29:00.275Z,98.29
2022-10-19T06:31:31.739Z,98.86
2022-10-19T06:33:58.620Z,99.45
2022-10-19T06:36:27.844Z,100.00
2022-10-19T06:38:55.881Z,99.71
2022-10-19T06:41:23.002Z,100.00
2022-10-19T06:43:51.100Z,100.00
2022-10-19T06:46:20.485Z,100.00
2022-10-19T06:48:58.106Z,100.00
2022-10-19T06:51:26.178Z,100.00
2022-10-19T06:53:56.618Z,100.00
2022-10-19T06:56:24.651Z,100.00
2022-10-19T06:58:51.712Z,100.00
2022-10-19T07:01:18.467Z,100.00
2022-10-19T07:03:45.108Z,100.00
2022-10-19T07:06:12.940Z,100.00
2022-10-19T07:08:41.564Z,100.00
2022-10-19T07:11:10.891Z,100.00
2022-10-19T07:13:38.071Z,100.00
2022-10-19T07:16:08.007Z,100.00
2022-10-19T07:18:36.293Z,100.00
2022-10-19T07:21:05.926Z,100.00
2022-10-19T07:23:34.440Z,100.00
2022-10-19T07:26:23.172Z,100.00
2022-10-19T07:28:49.779Z,100.00
2022-10-19T07:31:18.396Z,100.00
2022-10-19T07:33:45.019Z,100.00
2022-10-19T07:36:13.604Z,100.00
2022-10-19T07:38:40.704Z,100.00
2022-10-19T07:41:13.081Z,100.00
2022-10-19T07:43:40.611Z,100.00
2022-10-19T07:46:09.642Z,100.00
2022-10-19T07:48:36.117Z,100.00
2022-10-19T07:51:05.720Z,100.00
2022-10-19T07:53:32.752Z,99.75
2022-10-19T07:56:11.086Z,99.56
2022-10-19T07:58:37.908Z,99.26
2022-10-19T08:01:12.582Z,97.18
2022-10-19T08:06:26.477Z,97.63
2022-10-19T08:08:54.100Z,97.73
2022-10-19T08:11:25.244Z,97.21
2022-10-19T08:13:52.325Z,97.32
2022-10-19T08:16:37.279Z,96.98
2022-10-19T08:19:07.121Z,96.13
2022-10-19T08:21:34.726Z,96.88
2022-10-19T08:24:01.195Z,96.50
2022-10-19T08:26:32.312Z,95.85
2022-10-19T08:29:00.551Z,95.72
2022-10-19T08:31:26.886Z,95.90
2022-10-19T08:33:53.440Z,96.83
2022-10-19T08:36:21.180Z,95.13
2022-10-19T08:38:48.860Z,95.94
2022-10-19T08:41:23.125Z,95.57
2022-10-19T08:44:04.022Z,95.38
2022-10-19T08:47:08.730Z,94.84
2022-10-19T08:49:36.359Z,94.07
2022-10-19T08:52:17.694Z,93.89
2022-10-19T08:54:51.049Z,93.57
2022-10-19T08:57:24.297Z,91.53
2022-10-19T09:00:27.776Z,91.31
2022-10-19T09:03:31.874Z,88.80
2022-10-19T09:06:29.798Z,89.68
2022-10-19T09:08:57.697Z,90.61
2022-10-19T09:11:35.458Z,89.17
2022-10-19T09:14:17.698Z,89.03
2022-10-19T09:16:44.253Z,87.85
2022-10-19T09:19:21.971Z,87.79
2022-10-19T09:22:15.908Z,87.80
2022-10-19T09:24:49.158Z,88.17
2022-10-19T09:27:39.566Z,88.42
2022-10-19T09:30:16.941Z,86.76
2022-10-19T09:32:43.494Z,84.71
2022-10-19T09:35:34.099Z,85.76
2022-10-19T09:38:00.754Z,85.41
2022-10-19T09:40:29.808Z,85.21
2022-10-19T09:42:58.180Z,85.62
2022-10-19T09:45:57.297Z,85.63
2022-10-19T09:48:30.858Z,85.32
2022-10-19T09:51:02.476Z,82.92
2022-10-19T09:53:30.093Z,82.13
2022-10-19T09:56:04.883Z,81.77
2022-10-19T09:58:33.101Z,83.89
2022-10-19T10:01:01.740Z,82.69
2022-10-19T10:03:35.960Z,82.87
2022-10-19T10:06:06.018Z,82.30
2022-10-19T10:08:45.162Z,82.35
2022-10-19T10:11:24.094Z,82.99
2022-10-19T10:13:55.891Z,82.66
2022-10-19T10:16:29.220Z,80.46
2022-10-19T10:19:02.637Z,80.74
2022-10-19T10:21:36.335Z,80.57
2022-10-19T10:24:16.754Z,80.60
2022-10-19T10:26:49.119Z,81.00
2022-10-19T10:29:39.065Z,80.20
2022-10-19T10:32:11.358Z,80.75
2022-10-19T10:34:50.634Z,79.83
2022-10-19T10:37:23.208Z,79.78
2022-10-19T10:39:57.708Z,80.92
2022-10-19T10:42:32.820Z,79.69
2022-10-19T10:44:59.848Z,78.92
2022-10-19T10:47:28.166Z,78.80
2022-10-19T10:49:58.903Z,79.14
2022-10-19T10:52:28.220Z,80.15
2022-10-19T10:55:09.848Z,79.22
2022-10-19T10:57:46.411Z,79.30
2022-10-19T11:00:16.606Z,78.99
2022-10-19T11:03:01.168Z,79.52
2022-10-19T11:05:40.640Z,79.50
2022-10-19T11:08:31.880Z,79.67
2022-10-19T11:11:30.395Z,79.46
2022-10-19T11:13:59.863Z,78.84
2022-10-19T11:16:39.815Z,78.51
2022-10-19T11:19:11.566Z,78.27
2022-10-19T11:21:44.305Z,78.11
2022-10-19T11:24:32.039Z,78.12
2022-10-19T11:27:19.933Z,79.20
2022-10-19T11:29:57.467Z,77.98
2022-10-19T11:32:56.177Z,77.99
2022-10-19T11:35:39.440Z,75.99
2022-10-19T11:38:30.403Z,76.35
2022-10-19T11:41:18.330Z,78.11
2022-10-19T11:44:09.668Z,76.59
2022-10-19T11:46:55.379Z,77.60
2022-10-19T11:49:49.375Z,76.10
2022-10-19T11:52:38.983Z,76.11
2022-10-19T11:55:30.640Z,75.73
2022-10-19T11:58:35.495Z,76.14
2022-10-19T12:01:20.664Z,76.80
2022-10-19T12:04:23.126Z,76.43
2022-10-19T12:06:59.852Z,73.72
2022-10-19T12:09:39.268Z,75.24
2022-10-19T12:12:18.734Z,76.23
2022-10-19T12:14:50.835Z,75.13
2022-10-19T12:17:34.184Z,75.15
2022-10-19T12:20:07.115Z,75.82
2022-10-19T12:22:34.436Z,75.61
2022-10-19T12:25:01.867Z,75.79
2022-10-19T12:27:34.273Z,75.23
2022-10-19T12:30:14.922Z,75.68
2022-10-19T12:33:08.805Z,75.43
2022-10-19T12:35:45.652Z,74.43
2022-10-19T12:39:00.029Z,75.08
2022-10-19T12:41:39.019Z,74.42
2022-10-19T12:44:21.243Z,74.15
2022-10-19T12:46:56.452Z,75.42
2022-10-19T12:49:31.064Z,74.08
2022-10-19T12:51:59.604Z,74.80
2022-10-19T12:54:28.937Z,75.00
2022-10-19T12:56:57.412Z,75.03
2022-10-19T12:59:25.534Z,75.80
2022-10-19T13:01:52.371Z,75.75
2022-10-19T13:04:23.266Z,75.53
2022-10-19T13:06:58.510Z,74.79
2022-10-19T13:09:35.347Z,75.13
2022-10-19T13:12:17.660Z,76.09
2022-10-19T13:14:50.516Z,76.01
2022-10-19T13:17:40.608Z,74.36
2022-10-19T13:20:16.129Z,74.12
2022-10-19T13:23:11.878Z,74.88
2022-10-19T13:25:39.234Z,74.79
2022-10-19T13:28:26.763Z,75.04
2022-10-19T13:30:54.604Z,73.88
2022-10-19T13:33:25.560Z,74.38
2022-10-19T13:36:04.171Z,73.98
2022-10-19T13:38:31.584Z,74.36
2022-10-19T13:41:15.458Z,73.42
2022-10-19T13:44:03.870Z,73.47
2022-10-19T13:46:30.237Z,73.14
2022-10-19T13:49:27.743Z,73.09
2022-10-19T13:52:09.023Z,74.02
2022-10-19T13:54:57.287Z,74.66
2022-10-19T13:57:54.232Z,73.88
2022-10-19T14:00:23.753Z,72.68
2022-10-19T14:03:00.791Z,72.90
2022-10-19T14:05:53.616Z,73.83
2022-10-19T14:08:30.259Z,72.75
2022-10-19T14:11:06.139Z,73.55
2022-10-19T14:13:32.747Z,73.82
2022-10-19T14:16:03.139Z,74.91
2022-10-19T14:18:36.003Z,73.96
2022-10-19T14:21:06.013Z,74.96
2022-10-19T14:23:35.465Z,73.55
2022-10-19T14:26:07.327Z,73.52
2022-10-19T14:28:34.508Z,74.14
2022-10-19T14:31:04.565Z,73.97
2022-10-19T14:33:39.436Z,74.42
2022-10-19T14:36:08.067Z,74.85
2022-10-19T14:38:38.605Z,74.28
2022-10-19T14:41:06.760Z,74.24
2022-10-19T14:43:34.324Z,74.10
2022-10-19T14:46:06.514Z,74.81
2022-10-19T14:48:38.952Z,75.30
2022-10-19T14:51:14.878Z,76.48
2022-10-19T14:53:49.767Z,75.48
2022-10-19T14:56:46.927Z,75.49
2022-10-19T14:59:27.200Z,74.05
2022-10-19T15:01:55.564Z,74.49
2022-10-19T15:04:32.647Z,75.52
2022-10-19T15:07:03.035Z,74.72
2022-10-19T15:09:37.471Z,75.12
2022-10-19T15:12:16.991Z,74.81
2022-10-19T15:14:44.548Z,74.54
2022-10-19T15:17:29.479Z,74.69
2022-10-19T15:20:01.328Z,74.19
2022-10-19T15:22:30.966Z,75.05
2022-10-19T15:25:06.524Z,74.62
2022-10-19T15:27:38.916Z,75.15
2022-10-19T15:30:31.514Z,75.63
2022-10-19T15:33:09.493Z,76.35
2022-10-19T15:35:39.041Z,76.61
2022-10-19T15:38:21.893Z,77.25
2022-10-19T15:40:49.252Z,77.04
2022-10-19T15:43:31.842Z,77.06
2022-10-19T15:46:01.422Z,77.22
2022-10-19T15:48:41.499Z,77.35
2022-10-19T15:51:33.064Z,77.46
2022-10-19T15:54:05.396Z,78.00
2022-10-19T15:56:34.901Z,78.42
2022-10-19T15:59:03.748Z,79.16
2022-10-19T16:01:32.345Z,79.01
2022-10-19T16:03:59.713Z,79.86
2022-10-19T16:06:28.859Z,80.16
2022-10-19T16:08:55.688Z,80.55
2022-10-19T16:11:23.286Z,80.67
2022-10-19T16:13:50.146Z,79.87
2022-10-19T16:16:28.997Z,79.63
2022-10-19T16:18:56.485Z,80.13
2022-10-19T16:21:27.763Z,80.69
2022-10-19T16:23:54.196Z,80.40
2022-10-19T16:26:21.281Z,81.23
2022-10-19T16:28:48.716Z,82.82
2022-10-19T16:31:16.158Z,83.29
2022-10-19T16:33:42.542Z,83.90
2022-10-19T16:36:09.127Z,84.36
2022-10-19T16:38:36.496Z,84.49
2022-10-19T16:41:05.652Z,84.09
2022-10-19T16:43:32.180Z,84.55
2022-10-19T16:45:58.663Z,83.32
2022-10-19T16:48:25.535Z,83.62
2022-10-19T16:51:07.321Z,83.65
2022-10-19T16:53:35.164Z,83.32
2022-10-19T16:56:10.997Z,82.33
2022-10-19T16:58:38.198Z,82.98
2022-10-19T17:01:23.028Z,82.95
2022-10-19T17:03:50.001Z,84.06
2022-10-19T17:06:17.254Z,84.14
2022-10-19T17:09:14.771Z,84.44
2022-10-19T17:11:34.086Z,84.64
2022-10-19T17:14:04.107Z,84.84
2022-10-19T17:16:32.883Z,85.48
2022-10-19T17:19:00.843Z,85.42
2022-10-19T17:21:30.324Z,84.50
2022-10-19T17:24:02.256Z,85.81
2022-10-19T17:26:35.143Z,84.83
2022-10-19T17:29:02.050Z,84.63
2022-10-19T17:31:29.366Z,84.03
2022-10-19T17:33:56.453Z,83.49
2022-10-19T17:36:26.290Z,84.43
2022-10-19T17:38:57.657Z,84.17
2022-10-19T17:41:24.907Z,84.74
2022-10-19T17:43:52.104Z,84.27
2022-10-19T17:46:22.989Z,83.83
2022-10-19T17:48:49.857Z,84.24
2022-10-19T17:51:35.718Z,83.93
2022-10-19T17:54:05.140Z,83.85
2022-10-19T17:56:31.737Z,84.34
2022-10-19T17:58:58.503Z,84.01
2022-10-19T18:01:26.023Z,84.04
2022-10-19T18:03:52.980Z,84.12
2022-10-19T18:06:24.672Z,84.00
2022-10-19T18:08:54.012Z,84.59
2022-10-19T18:11:29.402Z,83.77
2022-10-19T18:13:58.309Z,84.52
2022-10-19T18:16:27.419Z,84.29
2022-10-19T18:18:56.760Z,83.59
2022-10-19T18:21:26.880Z,83.62
2022-10-19T18:23:56.072Z,83.81
2022-10-19T18:26:29.769Z,84.28
2022-10-19T18:28:57.218Z,83.63
2022-10-19T18:31:29.140Z,84.08
2022-10-19T18:33:58.649Z,83.61
2022-10-19T18:36:25.160Z,83.43
2022-10-19T18:38:53.112Z,82.68
2022-10-19T18:41:20.259Z,83.57
2022-10-19T18:43:52.316Z,83.59
2022-10-19T18:46:21.180Z,84.09
2022-10-19T18:48:48.107Z,84.12
2022-10-19T18:51:17.442Z,83.97
2022-10-19T18:53:44.865Z,84.23
2022-10-19T18:56:12.922Z,83.80
2022-10-19T18:58:39.567Z,83.65
2022-10-19T19:01:24.455Z,83.80
2022-10-19T19:03:53.764Z,83.85
2022-10-19T19:06:22.239Z,84.44
2022-10-19T19:08:49.291Z,83.81
2022-10-19T19:11:37.459Z,84.34
2022-10-19T19:14:16.296Z,84.16
2022-10-19T19:16:44.643Z,84.45
2022-10-19T19:19:13.666Z,84.74
2022-10-19T19:21:43.673Z,84.93
2022-10-19T19:24:12.637Z,85.05
2022-10-19T19:26:41.568Z,85.29
2022-10-19T19:29:08.227Z,85.64
2022-10-19T19:31:34.883Z,85.29
2022-10-19T19:34:02.443Z,85.54
2022-10-19T19:36:28.953Z,85.71
2022-10-19T19:38:57.195Z,86.33
2022-10-19T19:41:23.595Z,86.31
2022-10-19T19:43:50.259Z,86.03
2022-10-19T19:46:19.268Z,85.87
2022-10-19T19:48:48.051Z,85.86
2022-10-19T19:51:19.086Z,85.85
2022-10-19T19:53:47.195Z,85.75
2022-10-19T19:56:16.818Z,86.05
2022-10-19T19:58:44.807Z,85.92
2022-10-19T20:01:17.811Z,85.99
2022-10-19T20:03:45.972Z,85.79
2022-10-19T20:06:13.426Z,87.09
2022-10-19T20:08:40.012Z,86.16
2022-10-19T20:11:12.335Z,86.26
2022-10-19T20:13:39.307Z,86.26
2022-10-19T20:16:12.596Z,86.34
2022-10-19T20:18:44.714Z,86.01
2022-10-19T20:21:11.360Z,86.42
2022-10-19T20:23:38.565Z,86.45
2022-10-19T20:26:05.316Z,86.58
2022-10-19T20:28:33.181Z,86.82
2022-10-19T20:31:01.801Z,85.95
2022-10-19T20:33:30.085Z,86.08
2022-10-19T20:35:56.416Z,86.70
2022-10-19T20:38:23.015Z,87.53
2022-10-19T20:40:49.767Z,86.57
2022-10-19T20:43:17.511Z,86.76
2022-10-19T20:45:43.974Z,87.32
2022-10-19T20:48:10.352Z,87.33
2022-10-19T20:50:39.057Z,86.97
2022-10-19T20:53:05.433Z,87.54
2022-10-19T20:55:33.410Z,87.17
2022-10-19T20:57:59.803Z,87.78
2022-10-19T21:00:26.209Z,87.45
2022-10-19T21:02:53.527Z,87.80
2022-10-19T21:05:20.007Z,87.78
2022-10-19T21:07:46.415Z,88.06
2022-10-19T21:10:12.811Z,87.70
2022-10-19T21:12:39.224Z,87.91
2022-10-19T21:15:06.046Z,87.83
2022-10-19T21:17:32.618Z,87.94
2022-10-19T21:20:01.505Z,87.74
2022-10-19T21:22:27.978Z,88.20
2022-10-19T21:24:54.373Z,88.00
2022-10-19T21:27:21.081Z,88.22
2022-10-19T21:29:47.457Z,88.44
2022-10-19T21:32:13.883Z,88.49
2022-10-19T21:34:40.257Z,88.82
2022-10-19T21:37:06.742Z,88.77
2022-10-19T21:39:33.202Z,88.68
2022-10-19T21:41:59.583Z,88.76
2022-10-19T21:44:26.126Z,89.63
2022-10-19T21:46:53.001Z,89.18
2022-10-19T21:49:21.913Z,89.06
2022-10-19T21:51:54.267Z,88.98
2022-10-19T21:54:29.064Z,89.27
2022-10-19T21:56:57.633Z,89.84
2022-10-19T21:59:25.063Z,89.69
2022-10-19T22:01:51.916Z,89.94
2022-10-19T22:04:18.839Z,90.00
2022-10-19T22:06:45.441Z,90.09
2022-10-19T22:09:17.967Z,90.00
2022-10-19T22:11:44.998Z,90.98
2022-10-19T22:14:13.294Z,90.91
2022-10-19T22:16:40.181Z,90.69
2022-10-19T22:19:06.919Z,91.24
2022-10-19T22:21:34.495Z,91.47
2022-10-19T22:24:04.885Z,91.74
2022-10-19T22:26:37.920Z,91.61
2022-10-19T22:29:05.871Z,91.25
2022-10-19T22:31:33.742Z,91.82
2022-10-19T22:34:01.754Z,91.54
2022-10-19T22:36:28.482Z,91.63
2022-10-19T22:38:55.173Z,91.77
2022-10-19T22:41:21.711Z,91.54
2022-10-19T22:43:48.106Z,91.63
2022-10-19T22:46:14.610Z,91.76
2022-10-19T22:48:40.974Z,91.82
2022-10-19T22:51:09.754Z,91.58
2022-10-19T22:53:36.162Z,91.62
2022-10-19T22:56:02.825Z,91.68
2022-10-19T22:58:29.287Z,91.73
2022-10-19T23:01:04.418Z,91.79
2022-10-19T23:03:30.932Z,91.94
2022-10-19T23:05:57.430Z,91.90
2022-10-19T23:08:24.603Z,92.19
2022-10-19T23:10:51.142Z,92.06
2022-10-19T23:13:17.608Z,92.17
2022-10-19T23:15:45.012Z,91.68
2022-10-19T23:18:15.051Z,92.32
2022-10-19T23:20:41.512Z,92.34
2022-10-19T23:23:08.746Z,92.67
2022-10-19T23:25:35.144Z,92.12
2022-10-19T23:28:01.561Z,92.25
2022-10-19T23:30:28.016Z,92.59
2022-10-19T23:32:55.934Z,93.09
2022-10-19T23:35:22.429Z,92.65
2022-10-19T23:37:49.091Z,92.69
2022-10-19T23:40:15.602Z,92.97
2022-10-19T23:42:42.247Z,93.02
2022-10-19T23:45:08.980Z,92.46
2022-10-19T23:47:35.563Z,92.44
2022-10-19T23:50:02.177Z,92.47
2022-10-19T23:52:28.609Z,92.58
2022-10-19T23:54:55.023Z,92.56
2022-10-19T23:57:21.420Z,92.42
2022-10-19T23:59:50.187Z,92.46
